sensor_id;sensor_type;location;lat;lon;timestamp;P1;durP1;ratioP1;P2;durP2;ratioP2
13866;SDS011;7003;46.982;15.248;2023-06-24T00:01:37;5.15;;;3.55;;
13866;SDS011;7003;46.982;15.248;2023-06-24T00:04:05;4.22;;;3.60;;
13866;SDS011;7003;46.982;15.248;2023-06-24T00:06:34;7.32;;;3.83;;
13866;SDS011;7003;46.982;15.248;2023-06-24T00:09:02;4.68;;;3.60;;
13866;SDS011;7003;46.982;15.248;2023-06-24T00:11:33;2.45;;;2.20;;
13866;SDS011;7003;46.982;15.248;2023-06-24T00:14:02;3.17;;;2.85;;
13866;SDS011;7003;46.982;15.248;2023-06-24T00:16:30;3.70;;;3.40;;
13866;SDS011;7003;46.982;15.248;2023-06-24T00:18:57;3.28;;;2.97;;
13866;SDS011;7003;46.982;15.248;2023-06-24T00:21:26;3.20;;;2.53;;
13866;SDS011;7003;46.982;15.248;2023-06-24T00:23:55;4.20;;;2.53;;
13866;SDS011;7003;46.982;15.248;2023-06-24T00:26:23;4.20;;;3.75;;
13866;SDS011;7003;46.982;15.248;2023-06-24T00:28:51;4.40;;;3.38;;
13866;SDS011;7003;46.982;15.248;2023-06-24T00:31:21;4.03;;;3.50;;
13866;SDS011;7003;46.982;15.248;2023-06-24T00:33:48;3.75;;;3.45;;
13866;SDS011;7003;46.982;15.248;2023-06-24T00:36:17;6.88;;;4.05;;
13866;SDS011;7003;46.982;15.248;2023-06-24T00:38:46;3.17;;;2.88;;
13866;SDS011;7003;46.982;15.248;2023-06-24T00:41:17;3.78;;;3.05;;
13866;SDS011;7003;46.982;15.248;2023-06-24T00:43:44;4.68;;;3.40;;
13866;SDS011;7003;46.982;15.248;2023-06-24T00:46:15;3.75;;;3.45;;
13866;SDS011;7003;46.982;15.248;2023-06-24T00:48:45;5.40;;;4.00;;
13866;SDS011;7003;46.982;15.248;2023-06-24T00:51:14;4.93;;;2.95;;
13866;SDS011;7003;46.982;15.248;2023-06-24T00:53:41;4.63;;;3.28;;
13866;SDS011;7003;46.982;15.248;2023-06-24T00:56:10;3.85;;;2.90;;
13866;SDS011;7003;46.982;15.248;2023-06-24T00:58:38;3.10;;;2.83;;
13866;SDS011;7003;46.982;15.248;2023-06-24T01:01:07;5.88;;;5.03;;
13866;SDS011;7003;46.982;15.248;2023-06-24T01:03:37;5.07;;;3.47;;
13866;SDS011;7003;46.982;15.248;2023-06-24T01:06:08;4.65;;;3.67;;
13866;SDS011;7003;46.982;15.248;2023-06-24T01:08:35;6.97;;;4.30;;
13866;SDS011;7003;46.982;15.248;2023-06-24T01:11:05;3.70;;;3.20;;
13866;SDS011;7003;46.982;15.248;2023-06-24T01:13:35;7.38;;;4.32;;
13866;SDS011;7003;46.982;15.248;2023-06-24T01:16:04;5.57;;;3.30;;
13866;SDS011;7003;46.982;15.248;2023-06-24T01:18:42;4.95;;;3.88;;
13866;SDS011;7003;46.982;15.248;2023-06-24T01:21:15;4.90;;;4.10;;
13866;SDS011;7003;46.982;15.248;2023-06-24T01:23:59;3.40;;;3.03;;
13866;SDS011;7003;46.982;15.248;2023-06-24T01:30:08;4.97;;;3.65;;
13866;SDS011;7003;46.982;15.248;2023-06-24T01:32:50;4.63;;;4.15;;
13866;SDS011;7003;46.982;15.248;2023-06-24T01:35:21;6.95;;;4.75;;
13866;SDS011;7003;46.982;15.248;2023-06-24T01:37:55;4.95;;;4.45;;
13866;SDS011;7003;46.982;15.248;2023-06-24T01:40:30;4.40;;;3.22;;
13866;SDS011;7003;46.982;15.248;2023-06-24T01:43:03;6.78;;;5.00;;
13866;SDS011;7003;46.982;15.248;2023-06-24T01:45:36;3.35;;;2.95;;
13866;SDS011;7003;46.982;15.248;2023-06-24T01:48:11;8.75;;;3.40;;
13866;SDS011;7003;46.982;15.248;2023-06-24T01:50:44;7.10;;;4.60;;
13866;SDS011;7003;46.982;15.248;2023-06-24T01:53:17;7.53;;;4.15;;
13866;SDS011;7003;46.982;15.248;2023-06-24T01:55:49;4.07;;;3.70;;
13866;SDS011;7003;46.982;15.248;2023-06-24T01:58:20;5.00;;;3.65;;
13866;SDS011;7003;46.982;15.248;2023-06-24T02:00:49;4.15;;;2.90;;
13866;SDS011;7003;46.982;15.248;2023-06-24T02:03:19;3.83;;;3.13;;
13866;SDS011;7003;46.982;15.248;2023-06-24T02:05:49;3.42;;;3.13;;
13866;SDS011;7003;46.982;15.248;2023-06-24T02:08:21;3.88;;;3.22;;
13866;SDS011;7003;46.982;15.248;2023-06-24T02:10:49;5.30;;;3.78;;
13866;SDS011;7003;46.982;15.248;2023-06-24T02:13:17;4.95;;;3.83;;
13866;SDS011;7003;46.982;15.248;2023-06-24T02:15:46;6.15;;;4.13;;
13866;SDS011;7003;46.982;15.248;2023-06-24T02:18:15;3.80;;;3.50;;
13866;SDS011;7003;46.982;15.248;2023-06-24T02:20:45;4.53;;;3.60;;
13866;SDS011;7003;46.982;15.248;2023-06-24T02:23:18;7.03;;;4.25;;
13866;SDS011;7003;46.982;15.248;2023-06-24T02:25:46;5.78;;;4.35;;
13866;SDS011;7003;46.982;15.248;2023-06-24T02:28:14;4.15;;;3.15;;
13866;SDS011;7003;46.982;15.248;2023-06-24T02:30:43;4.47;;;3.30;;
13866;SDS011;7003;46.982;15.248;2023-06-24T02:33:14;4.30;;;2.88;;
13866;SDS011;7003;46.982;15.248;2023-06-24T02:35:45;3.38;;;3.08;;
13866;SDS011;7003;46.982;15.248;2023-06-24T02:38:12;6.68;;;3.38;;
13866;SDS011;7003;46.982;15.248;2023-06-24T02:40:43;3.72;;;2.92;;
13866;SDS011;7003;46.982;15.248;2023-06-24T02:43:10;6.93;;;3.80;;
13866;SDS011;7003;46.982;15.248;2023-06-24T02:45:40;4.53;;;3.10;;
13866;SDS011;7003;46.982;15.248;2023-06-24T02:48:08;3.15;;;2.85;;
13866;SDS011;7003;46.982;15.248;2023-06-24T02:50:37;3.03;;;2.60;;
13866;SDS011;7003;46.982;15.248;2023-06-24T02:53:07;4.40;;;3.55;;
13866;SDS011;7003;46.982;15.248;2023-06-24T02:55:35;4.10;;;2.78;;
13866;SDS011;7003;46.982;15.248;2023-06-24T02:58:05;3.08;;;2.40;;
13866;SDS011;7003;46.982;15.248;2023-06-24T03:00:35;3.72;;;3.40;;
13866;SDS011;7003;46.982;15.248;2023-06-24T03:03:07;2.92;;;2.58;;
13866;SDS011;7003;46.982;15.248;2023-06-24T03:05:35;4.55;;;3.13;;
13866;SDS011;7003;46.982;15.248;2023-06-24T03:08:05;3.17;;;2.88;;
13866;SDS011;7003;46.982;15.248;2023-06-24T03:10:35;3.58;;;3.28;;
13866;SDS011;7003;46.982;15.248;2023-06-24T03:13:03;3.38;;;3.03;;
13866;SDS011;7003;46.982;15.248;2023-06-24T03:15:31;4.95;;;2.70;;
13866;SDS011;7003;46.982;15.248;2023-06-24T03:17:59;2.25;;;2.05;;
13866;SDS011;7003;46.982;15.248;2023-06-24T03:20:27;3.45;;;2.92;;
13866;SDS011;7003;46.982;15.248;2023-06-24T03:23:05;3.20;;;2.90;;
13866;SDS011;7003;46.982;15.248;2023-06-24T03:25:32;4.88;;;3.45;;
13866;SDS011;7003;46.982;15.248;2023-06-24T03:28:04;3.03;;;2.72;;
13866;SDS011;7003;46.982;15.248;2023-06-24T03:30:33;8.93;;;3.85;;
13866;SDS011;7003;46.982;15.248;2023-06-24T03:33:01;20.83;;;4.80;;
13866;SDS011;7003;46.982;15.248;2023-06-24T03:35:29;4.07;;;2.78;;
13866;SDS011;7003;46.982;15.248;2023-06-24T03:37:58;8.65;;;3.58;;
13866;SDS011;7003;46.982;15.248;2023-06-24T03:40:26;5.22;;;4.05;;
13866;SDS011;7003;46.982;15.248;2023-06-24T03:42:55;5.18;;;2.88;;
13866;SDS011;7003;46.982;15.248;2023-06-24T03:45:23;6.78;;;4.00;;
13866;SDS011;7003;46.982;15.248;2023-06-24T03:47:51;3.97;;;2.70;;
13866;SDS011;7003;46.982;15.248;2023-06-24T03:50:19;2.45;;;2.22;;
13866;SDS011;7003;46.982;15.248;2023-06-24T03:52:49;3.78;;;2.47;;
13866;SDS011;7003;46.982;15.248;2023-06-24T03:55:19;4.97;;;3.03;;
13866;SDS011;7003;46.982;15.248;2023-06-24T03:57:47;3.58;;;2.83;;
13866;SDS011;7003;46.982;15.248;2023-06-24T04:00:18;4.00;;;3.20;;
13866;SDS011;7003;46.982;15.248;2023-06-24T04:02:49;3.67;;;2.80;;
13866;SDS011;7003;46.982;15.248;2023-06-24T04:05:19;2.58;;;2.35;;
13866;SDS011;7003;46.982;15.248;2023-06-24T04:07:47;5.05;;;2.33;;
13866;SDS011;7003;46.982;15.248;2023-06-24T04:10:16;2.55;;;2.22;;
13866;SDS011;7003;46.982;15.248;2023-06-24T04:12:49;4.28;;;3.40;;
13866;SDS011;7003;46.982;15.248;2023-06-24T04:15:17;4.82;;;3.20;;
13866;SDS011;7003;46.982;15.248;2023-06-24T04:17:49;3.10;;;2.17;;
13866;SDS011;7003;46.982;15.248;2023-06-24T04:20:17;2.45;;;2.25;;
13866;SDS011;7003;46.982;15.248;2023-06-24T04:22:45;2.97;;;2.53;;
13866;SDS011;7003;46.982;15.248;2023-06-24T04:25:16;3.00;;;2.70;;
13866;SDS011;7003;46.982;15.248;2023-06-24T04:27:44;2.83;;;2.58;;
13866;SDS011;7003;46.982;15.248;2023-06-24T04:30:12;4.78;;;2.67;;
13866;SDS011;7003;46.982;15.248;2023-06-24T04:32:42;2.78;;;2.58;;
13866;SDS011;7003;46.982;15.248;2023-06-24T04:35:10;3.15;;;2.85;;
13866;SDS011;7003;46.982;15.248;2023-06-24T04:37:37;3.83;;;3.33;;
13866;SDS011;7003;46.982;15.248;2023-06-24T04:40:06;3.38;;;2.63;;
13866;SDS011;7003;46.982;15.248;2023-06-24T04:42:34;3.60;;;2.55;;
13866;SDS011;7003;46.982;15.248;2023-06-24T04:45:02;5.97;;;3.40;;
13866;SDS011;7003;46.982;15.248;2023-06-24T04:47:34;3.42;;;2.83;;
13866;SDS011;7003;46.982;15.248;2023-06-24T04:50:04;5.72;;;3.67;;
13866;SDS011;7003;46.982;15.248;2023-06-24T04:52:35;3.83;;;2.97;;
13866;SDS011;7003;46.982;15.248;2023-06-24T04:55:06;4.78;;;3.10;;
13866;SDS011;7003;46.982;15.248;2023-06-24T04:57:34;4.60;;;3.03;;
13866;SDS011;7003;46.982;15.248;2023-06-24T05:00:02;4.32;;;3.33;;
13866;SDS011;7003;46.982;15.248;2023-06-24T05:02:34;3.78;;;3.28;;
13866;SDS011;7003;46.982;15.248;2023-06-24T05:05:13;3.72;;;2.67;;
13866;SDS011;7003;46.982;15.248;2023-06-24T05:07:44;3.75;;;3.20;;
13866;SDS011;7003;46.982;15.248;2023-06-24T05:10:15;2.15;;;1.95;;
13866;SDS011;7003;46.982;15.248;2023-06-24T05:12:46;2.50;;;2.30;;
13866;SDS011;7003;46.982;15.248;2023-06-24T05:15:17;3.83;;;2.92;;
13866;SDS011;7003;46.982;15.248;2023-06-24T05:17:47;2.97;;;2.65;;
13866;SDS011;7003;46.982;15.248;2023-06-24T05:20:18;3.03;;;2.72;;
13866;SDS011;7003;46.982;15.248;2023-06-24T05:22:47;4.30;;;3.53;;
13866;SDS011;7003;46.982;15.248;2023-06-24T05:25:14;3.00;;;2.70;;
13866;SDS011;7003;46.982;15.248;2023-06-24T05:27:44;2.38;;;2.17;;
13866;SDS011;7003;46.982;15.248;2023-06-24T05:30:12;3.85;;;2.33;;
13866;SDS011;7003;46.982;15.248;2023-06-24T05:32:40;3.08;;;2.60;;
13866;SDS011;7003;46.982;15.248;2023-06-24T05:35:08;4.13;;;2.03;;
13866;SDS011;7003;46.982;15.248;2023-06-24T05:37:40;3.17;;;2.55;;
13866;SDS011;7003;46.982;15.248;2023-06-24T05:40:11;2.40;;;2.15;;
13866;SDS011;7003;46.982;15.248;2023-06-24T05:42:41;1.95;;;1.73;;
13866;SDS011;7003;46.982;15.248;2023-06-24T05:45:09;2.67;;;2.45;;
13866;SDS011;7003;46.982;15.248;2023-06-24T05:47:39;2.47;;;1.70;;
13866;SDS011;7003;46.982;15.248;2023-06-24T05:50:09;3.20;;;2.47;;
13866;SDS011;7003;46.982;15.248;2023-06-24T05:52:37;2.50;;;2.30;;
13866;SDS011;7003;46.982;15.248;2023-06-24T05:55:06;2.80;;;2.50;;
13866;SDS011;7003;46.982;15.248;2023-06-24T05:57:33;2.22;;;1.98;;
13866;SDS011;7003;46.982;15.248;2023-06-24T06:00:04;5.75;;;2.13;;
13866;SDS011;7003;46.982;15.248;2023-06-24T06:02:34;2.42;;;2.20;;
13866;SDS011;7003;46.982;15.248;2023-06-24T06:05:02;2.70;;;2.40;;
13866;SDS011;7003;46.982;15.248;2023-06-24T06:07:33;2.55;;;2.35;;
13866;SDS011;7003;46.982;15.248;2023-06-24T06:10:07;3.15;;;2.83;;
13866;SDS011;7003;46.982;15.248;2023-06-24T06:12:38;2.45;;;2.10;;
13866;SDS011;7003;46.982;15.248;2023-06-24T06:15:06;3.45;;;2.97;;
13866;SDS011;7003;46.982;15.248;2023-06-24T06:17:35;2.08;;;1.92;;
13866;SDS011;7003;46.982;15.248;2023-06-24T06:20:03;5.78;;;2.88;;
13866;SDS011;7003;46.982;15.248;2023-06-24T06:22:36;3.88;;;2.83;;
13866;SDS011;7003;46.982;15.248;2023-06-24T06:25:04;3.08;;;2.50;;
13866;SDS011;7003;46.982;15.248;2023-06-24T06:27:34;2.47;;;2.28;;
13866;SDS011;7003;46.982;15.248;2023-06-24T06:30:05;3.10;;;2.85;;
13866;SDS011;7003;46.982;15.248;2023-06-24T06:32:36;2.38;;;2.17;;
13866;SDS011;7003;46.982;15.248;2023-06-24T06:35:03;3.10;;;2.80;;
13866;SDS011;7003;46.982;15.248;2023-06-24T06:37:31;4.07;;;3.00;;
13866;SDS011;7003;46.982;15.248;2023-06-24T06:39:59;2.53;;;2.33;;
13866;SDS011;7003;46.982;15.248;2023-06-24T06:42:28;2.45;;;2.25;;
13866;SDS011;7003;46.982;15.248;2023-06-24T06:44:55;4.55;;;3.30;;
13866;SDS011;7003;46.982;15.248;2023-06-24T06:47:23;3.00;;;2.72;;
13866;SDS011;7003;46.982;15.248;2023-06-24T06:49:53;3.28;;;2.97;;
13866;SDS011;7003;46.982;15.248;2023-06-24T06:52:21;1.90;;;1.77;;
13866;SDS011;7003;46.982;15.248;2023-06-24T06:54:50;3.67;;;2.25;;
13866;SDS011;7003;46.982;15.248;2023-06-24T06:57:21;4.55;;;2.38;;
13866;SDS011;7003;46.982;15.248;2023-06-24T06:59:50;5.55;;;2.45;;
13866;SDS011;7003;46.982;15.248;2023-06-24T07:02:21;2.28;;;2.03;;
13866;SDS011;7003;46.982;15.248;2023-06-24T07:04:51;2.38;;;2.17;;
13866;SDS011;7003;46.982;15.248;2023-06-24T07:07:18;2.30;;;2.10;;
13866;SDS011;7003;46.982;15.248;2023-06-24T07:09:46;2.05;;;1.85;;
13866;SDS011;7003;46.982;15.248;2023-06-24T07:12:13;2.42;;;1.88;;
13866;SDS011;7003;46.982;15.248;2023-06-24T07:14:40;2.05;;;1.77;;
13866;SDS011;7003;46.982;15.248;2023-06-24T07:17:09;3.05;;;2.17;;
13866;SDS011;7003;46.982;15.248;2023-06-24T07:19:40;2.05;;;1.58;;
13866;SDS011;7003;46.982;15.248;2023-06-24T07:22:09;1.70;;;1.60;;
13866;SDS011;7003;46.982;15.248;2023-06-24T07:24:39;1.77;;;1.67;;
13866;SDS011;7003;46.982;15.248;2023-06-24T07:27:10;2.75;;;2.03;;
13866;SDS011;7003;46.982;15.248;2023-06-24T07:29:38;2.08;;;1.88;;
13866;SDS011;7003;46.982;15.248;2023-06-24T07:32:08;3.50;;;2.42;;
13866;SDS011;7003;46.982;15.248;2023-06-24T07:34:36;2.25;;;1.98;;
13866;SDS011;7003;46.982;15.248;2023-06-24T07:37:04;2.00;;;1.80;;
13866;SDS011;7003;46.982;15.248;2023-06-24T07:39:31;3.25;;;1.92;;
13866;SDS011;7003;46.982;15.248;2023-06-24T07:41:59;1.83;;;1.70;;
13866;SDS011;7003;46.982;15.248;2023-06-24T07:44:29;3.40;;;2.33;;
13866;SDS011;7003;46.982;15.248;2023-06-24T07:46:57;1.98;;;1.73;;
13866;SDS011;7003;46.982;15.248;2023-06-24T07:49:28;2.50;;;1.90;;
13866;SDS011;7003;46.982;15.248;2023-06-24T07:51:57;2.83;;;1.80;;
13866;SDS011;7003;46.982;15.248;2023-06-24T07:54:25;1.98;;;1.60;;
13866;SDS011;7003;46.982;15.248;2023-06-24T07:56:52;5.93;;;2.53;;
13866;SDS011;7003;46.982;15.248;2023-06-24T07:59:19;3.05;;;2.08;;
13866;SDS011;7003;46.982;15.248;2023-06-24T08:01:47;2.10;;;1.90;;
13866;SDS011;7003;46.982;15.248;2023-06-24T08:04:14;3.25;;;2.25;;
13866;SDS011;7003;46.982;15.248;2023-06-24T08:06:44;2.70;;;2.38;;
13866;SDS011;7003;46.982;15.248;2023-06-24T08:09:15;2.47;;;2.17;;
13866;SDS011;7003;46.982;15.248;2023-06-24T08:11:42;2.33;;;2.13;;
13866;SDS011;7003;46.982;15.248;2023-06-24T08:14:10;3.95;;;2.65;;
13866;SDS011;7003;46.982;15.248;2023-06-24T08:16:37;3.28;;;2.13;;
13866;SDS011;7003;46.982;15.248;2023-06-24T08:19:05;2.50;;;2.03;;
13866;SDS011;7003;46.982;15.248;2023-06-24T08:21:32;2.25;;;2.05;;
13866;SDS011;7003;46.982;15.248;2023-06-24T08:24:04;2.60;;;2.10;;
13866;SDS011;7003;46.982;15.248;2023-06-24T08:26:32;2.50;;;2.30;;
13866;SDS011;7003;46.982;15.248;2023-06-24T08:29:02;4.07;;;2.30;;
13866;SDS011;7003;46.982;15.248;2023-06-24T08:31:30;3.28;;;2.60;;
13866;SDS011;7003;46.982;15.248;2023-06-24T08:33:58;2.28;;;2.17;;
13866;SDS011;7003;46.982;15.248;2023-06-24T08:36:30;2.03;;;1.52;;
13866;SDS011;7003;46.982;15.248;2023-06-24T08:38:57;1.98;;;1.83;;
13866;SDS011;7003;46.982;15.248;2023-06-24T08:41:29;2.47;;;2.08;;
13866;SDS011;7003;46.982;15.248;2023-06-24T08:43:59;1.42;;;1.30;;
13866;SDS011;7003;46.982;15.248;2023-06-24T08:46:27;1.50;;;1.40;;
13866;SDS011;7003;46.982;15.248;2023-06-24T08:48:58;1.42;;;0.93;;
13866;SDS011;7003;46.982;15.248;2023-06-24T08:51:29;0.98;;;0.70;;
13866;SDS011;7003;46.982;15.248;2023-06-24T08:54:01;0.73;;;0.68;;
13866;SDS011;7003;46.982;15.248;2023-06-24T08:56:30;1.08;;;0.40;;
13866;SDS011;7003;46.982;15.248;2023-06-24T08:58:58;0.73;;;0.68;;
13866;SDS011;7003;46.982;15.248;2023-06-24T09:01:25;0.60;;;0.60;;
13866;SDS011;7003;46.982;15.248;2023-06-24T09:03:54;0.57;;;0.40;;
13866;SDS011;7003;46.982;15.248;2023-06-24T09:06:23;0.20;;;0.20;;
13866;SDS011;7003;46.982;15.248;2023-06-24T09:08:53;1.45;;;0.50;;
13866;SDS011;7003;46.982;15.248;2023-06-24T09:11:24;0.25;;;0.25;;
13866;SDS011;7003;46.982;15.248;2023-06-24T09:13:57;0.28;;;0.28;;
13866;SDS011;7003;46.982;15.248;2023-06-24T09:16:25;0.30;;;0.30;;
13866;SDS011;7003;46.982;15.248;2023-06-24T09:18:53;0.93;;;0.70;;
13866;SDS011;7003;46.982;15.248;2023-06-24T09:21:21;0.20;;;0.20;;
13866;SDS011;7003;46.982;15.248;2023-06-24T09:23:51;0.75;;;0.38;;
13866;SDS011;7003;46.982;15.248;2023-06-24T09:26:19;0.32;;;0.30;;
13866;SDS011;7003;46.982;15.248;2023-06-24T09:28:51;0.05;;;0.03;;
13866;SDS011;7003;46.982;15.248;2023-06-24T09:31:23;0.00;;;0.00;;
13866;SDS011;7003;46.982;15.248;2023-06-24T09:33:50;0.00;;;0.00;;
13866;SDS011;7003;46.982;15.248;2023-06-24T09:36:20;0.00;;;0.00;;
13866;SDS011;7003;46.982;15.248;2023-06-24T09:38:48;0.10;;;0.10;;
13866;SDS011;7003;46.982;15.248;2023-06-24T09:41:18;0.00;;;0.00;;
13866;SDS011;7003;46.982;15.248;2023-06-24T09:43:48;0.00;;;0.00;;
13866;SDS011;7003;46.982;15.248;2023-06-24T09:46:19;0.10;;;0.10;;
13866;SDS011;7003;46.982;15.248;2023-06-24T09:48:47;1.05;;;0.20;;
13866;SDS011;7003;46.982;15.248;2023-06-24T09:51:17;0.00;;;0.00;;
13866;SDS011;7003;46.982;15.248;2023-06-24T09:53:44;0.00;;;0.00;;
13866;SDS011;7003;46.982;15.248;2023-06-24T09:56:12;0.08;;;0.00;;
13866;SDS011;7003;46.982;15.248;2023-06-24T09:58:44;0.10;;;0.10;;
13866;SDS011;7003;46.982;15.248;2023-06-24T10:01:13;0.00;;;0.00;;
13866;SDS011;7003;46.982;15.248;2023-06-24T10:03:42;0.00;;;0.00;;
13866;SDS011;7003;46.982;15.248;2023-06-24T10:06:13;0.00;;;0.00;;
13866;SDS011;7003;46.982;15.248;2023-06-24T10:08:44;0.20;;;0.10;;
13866;SDS011;7003;46.982;15.248;2023-06-24T10:11:11;0.00;;;0.00;;
13866;SDS011;7003;46.982;15.248;2023-06-24T10:13:39;0.00;;;0.00;;
13866;SDS011;7003;46.982;15.248;2023-06-24T10:16:09;0.00;;;0.00;;
13866;SDS011;7003;46.982;15.248;2023-06-24T10:18:39;0.00;;;0.00;;
13866;SDS011;7003;46.982;15.248;2023-06-24T10:21:07;0.00;;;0.00;;
13866;SDS011;7003;46.982;15.248;2023-06-24T10:23:40;0.00;;;0.00;;
13866;SDS011;7003;46.982;15.248;2023-06-24T10:26:09;0.00;;;0.00;;
13866;SDS011;7003;46.982;15.248;2023-06-24T10:29:09;0.00;;;0.00;;
13866;SDS011;7003;46.982;15.248;2023-06-24T10:31:50;0.95;;;0.20;;
13866;SDS011;7003;46.982;15.248;2023-06-24T10:34:28;0.00;;;0.00;;
13866;SDS011;7003;46.982;15.248;2023-06-24T10:37:09;0.00;;;0.00;;
13866;SDS011;7003;46.982;15.248;2023-06-24T10:39:49;0.00;;;0.00;;
13866;SDS011;7003;46.982;15.248;2023-06-24T10:42:30;0.00;;;0.00;;
13866;SDS011;7003;46.982;15.248;2023-06-24T10:45:01;0.05;;;0.05;;
13866;SDS011;7003;46.982;15.248;2023-06-24T10:47:40;0.00;;;0.00;;
13866;SDS011;7003;46.982;15.248;2023-06-24T10:50:13;0.05;;;0.00;;
13866;SDS011;7003;46.982;15.248;2023-06-24T10:52:44;0.90;;;0.20;;
13866;SDS011;7003;46.982;15.248;2023-06-24T10:55:14;0.05;;;0.03;;
13866;SDS011;7003;46.982;15.248;2023-06-24T10:57:45;0.00;;;0.00;;
13866;SDS011;7003;46.982;15.248;2023-06-24T11:00:13;0.20;;;0.17;;
13866;SDS011;7003;46.982;15.248;2023-06-24T11:02:44;0.88;;;0.08;;
13866;SDS011;7003;46.982;15.248;2023-06-24T11:05:14;0.20;;;0.10;;
13866;SDS011;7003;46.982;15.248;2023-06-24T11:07:41;0.00;;;0.00;;
13866;SDS011;7003;46.982;15.248;2023-06-24T11:10:12;0.30;;;0.10;;
13866;SDS011;7003;46.982;15.248;2023-06-24T11:12:44;0.00;;;0.00;;
13866;SDS011;7003;46.982;15.248;2023-06-24T11:15:14;0.00;;;0.00;;
13866;SDS011;7003;46.982;15.248;2023-06-24T11:17:41;0.17;;;0.10;;
13866;SDS011;7003;46.982;15.248;2023-06-24T11:20:09;0.00;;;0.00;;
13866;SDS011;7003;46.982;15.248;2023-06-24T11:22:40;0.80;;;0.22;;
13866;SDS011;7003;46.982;15.248;2023-06-24T11:25:19;0.00;;;0.00;;
13866;SDS011;7003;46.982;15.248;2023-06-24T11:27:49;0.10;;;0.10;;
13866;SDS011;7003;46.982;15.248;2023-06-24T11:30:18;0.25;;;0.10;;
13866;SDS011;7003;46.982;15.248;2023-06-24T11:32:46;0.28;;;0.25;;
13866;SDS011;7003;46.982;15.248;2023-06-24T11:35:19;0.00;;;0.00;;
13866;SDS011;7003;46.982;15.248;2023-06-24T11:37:46;0.10;;;0.10;;
13866;SDS011;7003;46.982;15.248;2023-06-24T11:40:18;0.00;;;0.00;;
13866;SDS011;7003;46.982;15.248;2023-06-24T11:42:49;0.03;;;0.03;;
13866;SDS011;7003;46.982;15.248;2023-06-24T11:45:19;0.00;;;0.00;;
13866;SDS011;7003;46.982;15.248;2023-06-24T11:47:47;0.25;;;0.25;;
13866;SDS011;7003;46.982;15.248;2023-06-24T11:50:15;0.00;;;0.00;;
13866;SDS011;7003;46.982;15.248;2023-06-24T11:52:42;0.10;;;0.10;;
13866;SDS011;7003;46.982;15.248;2023-06-24T11:55:19;0.00;;;0.00;;
13866;SDS011;7003;46.982;15.248;2023-06-24T11:57:52;0.10;;;0.10;;
13866;SDS011;7003;46.982;15.248;2023-06-24T12:00:21;0.00;;;0.00;;
13866;SDS011;7003;46.982;15.248;2023-06-24T12:02:49;0.00;;;0.00;;
13866;SDS011;7003;46.982;15.248;2023-06-24T12:05:22;0.30;;;0.20;;
13866;SDS011;7003;46.982;15.248;2023-06-24T12:07:55;0.03;;;0.03;;
13866;SDS011;7003;46.982;15.248;2023-06-24T12:10:24;0.00;;;0.00;;
13866;SDS011;7003;46.982;15.248;2023-06-24T12:12:56;0.10;;;0.10;;
13866;SDS011;7003;46.982;15.248;2023-06-24T12:15:24;0.20;;;0.10;;
13866;SDS011;7003;46.982;15.248;2023-06-24T12:17:51;0.00;;;0.00;;
13866;SDS011;7003;46.982;15.248;2023-06-24T12:20:19;0.10;;;0.10;;
13866;SDS011;7003;46.982;15.248;2023-06-24T12:22:46;0.10;;;0.10;;
13866;SDS011;7003;46.982;15.248;2023-06-24T12:25:17;0.20;;;0.20;;
13866;SDS011;7003;46.982;15.248;2023-06-24T12:27:46;0.17;;;0.10;;
13866;SDS011;7003;46.982;15.248;2023-06-24T12:30:16;0.10;;;0.10;;
13866;SDS011;7003;46.982;15.248;2023-06-24T12:32:46;0.22;;;0.05;;
13866;SDS011;7003;46.982;15.248;2023-06-24T12:35:15;0.38;;;0.20;;
13866;SDS011;7003;46.982;15.248;2023-06-24T12:37:43;0.00;;;0.00;;
13866;SDS011;7003;46.982;15.248;2023-06-24T12:40:11;0.10;;;0.10;;
13866;SDS011;7003;46.982;15.248;2023-06-24T12:42:41;0.08;;;0.08;;
13866;SDS011;7003;46.982;15.248;2023-06-24T12:45:10;0.10;;;0.10;;
13866;SDS011;7003;46.982;15.248;2023-06-24T12:47:37;0.13;;;0.10;;
13866;SDS011;7003;46.982;15.248;2023-06-24T12:50:05;0.10;;;0.10;;
13866;SDS011;7003;46.982;15.248;2023-06-24T12:52:36;0.20;;;0.10;;
13866;SDS011;7003;46.982;15.248;2023-06-24T12:55:06;0.10;;;0.10;;
13866;SDS011;7003;46.982;15.248;2023-06-24T12:57:36;0.38;;;0.20;;
13866;SDS011;7003;46.982;15.248;2023-06-24T13:00:04;0.10;;;0.10;;
13866;SDS011;7003;46.982;15.248;2023-06-24T13:02:36;0.00;;;0.00;;
13866;SDS011;7003;46.982;15.248;2023-06-24T13:05:05;0.03;;;0.03;;
13866;SDS011;7003;46.982;15.248;2023-06-24T13:07:35;0.10;;;0.10;;
13866;SDS011;7003;46.982;15.248;2023-06-24T13:10:05;0.00;;;0.00;;
13866;SDS011;7003;46.982;15.248;2023-06-24T13:12:33;0.10;;;0.10;;
13866;SDS011;7003;46.982;15.248;2023-06-24T13:15:01;0.73;;;0.10;;
13866;SDS011;7003;46.982;15.248;2023-06-24T13:17:32;0.50;;;0.20;;
13866;SDS011;7003;46.982;15.248;2023-06-24T13:20:01;0.32;;;0.20;;
13866;SDS011;7003;46.982;15.248;2023-06-24T13:22:33;0.28;;;0.28;;
13866;SDS011;7003;46.982;15.248;2023-06-24T13:25:00;0.03;;;0.03;;
13866;SDS011;7003;46.982;15.248;2023-06-24T13:27:30;0.15;;;0.15;;
13866;SDS011;7003;46.982;15.248;2023-06-24T13:29:57;0.30;;;0.30;;
13866;SDS011;7003;46.982;15.248;2023-06-24T13:32:27;0.30;;;0.30;;
13866;SDS011;7003;46.982;15.248;2023-06-24T13:34:54;0.30;;;0.30;;
13866;SDS011;7003;46.982;15.248;2023-06-24T13:37:23;0.20;;;0.20;;
13866;SDS011;7003;46.982;15.248;2023-06-24T13:39:51;0.20;;;0.20;;
13866;SDS011;7003;46.982;15.248;2023-06-24T13:42:18;0.35;;;0.30;;
13866;SDS011;7003;46.982;15.248;2023-06-24T13:44:45;0.30;;;0.30;;
13866;SDS011;7003;46.982;15.248;2023-06-24T13:47:13;1.20;;;0.73;;
13866;SDS011;7003;46.982;15.248;2023-06-24T13:49:43;0.20;;;0.20;;
13866;SDS011;7003;46.982;15.248;2023-06-24T13:52:12;0.45;;;0.40;;
13866;SDS011;7003;46.982;15.248;2023-06-24T13:54:41;0.63;;;0.63;;
13866;SDS011;7003;46.982;15.248;2023-06-24T13:57:08;1.00;;;0.60;;
13866;SDS011;7003;46.982;15.248;2023-06-24T13:59:39;1.40;;;0.45;;
13866;SDS011;7003;46.982;15.248;2023-06-24T14:02:06;1.15;;;0.65;;
13866;SDS011;7003;46.982;15.248;2023-06-24T14:04:34;0.30;;;0.30;;
13866;SDS011;7003;46.982;15.248;2023-06-24T14:07:02;0.90;;;0.60;;
13866;SDS011;7003;46.982;15.248;2023-06-24T14:09:30;0.75;;;0.68;;
13866;SDS011;7003;46.982;15.248;2023-06-24T14:11:59;0.60;;;0.52;;
13866;SDS011;7003;46.982;15.248;2023-06-24T14:14:30;0.82;;;0.68;;
13866;SDS011;7003;46.982;15.248;2023-06-24T14:16:59;0.60;;;0.60;;
13866;SDS011;7003;46.982;15.248;2023-06-24T14:19:27;0.88;;;0.80;;
13866;SDS011;7003;46.982;15.248;2023-06-24T14:21:55;0.57;;;0.45;;
13866;SDS011;7003;46.982;15.248;2023-06-24T14:24:24;0.70;;;0.70;;
13866;SDS011;7003;46.982;15.248;2023-06-24T14:26:52;0.43;;;0.43;;
13866;SDS011;7003;46.982;15.248;2023-06-24T14:29:26;0.60;;;0.60;;
13866;SDS011;7003;46.982;15.248;2023-06-24T14:32:18;0.40;;;0.40;;
13866;SDS011;7003;46.982;15.248;2023-06-24T14:34:49;1.13;;;1.05;;
13866;SDS011;7003;46.982;15.248;2023-06-24T14:37:22;0.30;;;0.30;;
13866;SDS011;7003;46.982;15.248;2023-06-24T14:39:51;1.02;;;0.63;;
13866;SDS011;7003;46.982;15.248;2023-06-24T14:42:20;0.40;;;0.40;;
13866;SDS011;7003;46.982;15.248;2023-06-24T14:44:49;0.32;;;0.32;;
13866;SDS011;7003;46.982;15.248;2023-06-24T14:47:17;0.50;;;0.50;;
13866;SDS011;7003;46.982;15.248;2023-06-24T14:49:47;0.63;;;0.63;;
13866;SDS011;7003;46.982;15.248;2023-06-24T14:52:16;0.77;;;0.77;;
13866;SDS011;7003;46.982;15.248;2023-06-24T14:54:46;0.38;;;0.38;;
13866;SDS011;7003;46.982;15.248;2023-06-24T14:57:16;0.85;;;0.68;;
13866;SDS011;7003;46.982;15.248;2023-06-24T14:59:44;4.65;;;0.93;;
13866;SDS011;7003;46.982;15.248;2023-06-24T15:02:14;0.80;;;0.80;;
13866;SDS011;7003;46.982;15.248;2023-06-24T15:04:46;0.57;;;0.57;;
13866;SDS011;7003;46.982;15.248;2023-06-24T15:07:14;0.50;;;0.40;;